Observation data for Floydada on 01/20/2019      Previous  Date  Next       Current Mesonet Observations  Soil Data  Daily Summary Page  Observations in Plain Language
KFLS 200600Z 14006KT M03/M06 A3028 RMK A01 T10311059  RH  082%=      5-min Rain = 0
KFLS 200605Z 14005KT M03/M06 A3028 RMK A01 T10281056  RH  082%=      5-min Rain = 0
KFLS 200610Z 15006KT M03/M06 A3029 RMK A01 T10301060  RH  081%=      5-min Rain = 0
KFLS 200615Z 14006KT M04/M06 A3028 RMK A01 T10351063  RH  082%=      5-min Rain = 0
KFLS 200620Z 15006KT M04/M07 A3028 RMK A01 T10371065  RH  082%=      5-min Rain = 0
KFLS 200625Z 14006KT M04/M07 A3028 RMK A01 T10381065  RH  082%=      5-min Rain = 0
KFLS 200630Z 14006KT M04/M07 A3028 RMK A01 T10411068  RH  082%=      5-min Rain = 0
KFLS 200635Z 14007KT M05/M07 A3028 RMK A01 T10451072  RH  083%=      5-min Rain = 0
KFLS 200640Z 15005KT M05/M07 A3029 RMK A01 T10451069  RH  084%=      5-min Rain = 0
KFLS 200645Z 16005KT M04/M07 A3028 RMK A01 T10421065  RH  085%=      5-min Rain = 0
KFLS 200650Z 15007KT M04/M07 A3028 RMK A01 T10421067  RH  084%=      5-min Rain = 0
KFLS 200655Z 16007KT M04/M06 A3028 RMK A01 T10381062  RH  085%=      5-min Rain = 0
KFLS 200700Z 16007KT M03/M06 A3028 RMK A01 T10321057  RH  084%=      5-min Rain = 0
KFLS 200705Z 15007KT M03/M06 A3028 RMK A01 T10311058  RH  083%=      5-min Rain = 0
KFLS 200710Z 15006KT M03/M06 A3028 RMK A01 T10341062  RH  082%=      5-min Rain = 0
KFLS 200715Z 15006KT M04/M06 A3028 RMK A01 T10381064  RH  083%=      5-min Rain = 0
KFLS 200720Z 16007KT M04/M06 A3028 RMK A01 T10391064  RH  083%=      5-min Rain = 0
KFLS 200725Z 15006KT M04/M06 A3028 RMK A01 T10371062  RH  083%=      5-min Rain = 0
KFLS 200730Z 16006KT M04/M07 A3028 RMK A01 T10391066  RH  083%=      5-min Rain = 0
KFLS 200735Z 16006KT M04/M07 A3028 RMK A01 T10411068  RH  083%=      5-min Rain = 0
KFLS 200740Z 16006KT M04/M07 A3028 RMK A01 T10431069  RH  083%=      5-min Rain = 0
KFLS 200745Z 15006KT M05/M07 A3028 RMK A01 T10451071  RH  083%=      5-min Rain = 0
KFLS 200750Z 15007KT M05/M07 A3028 RMK A01 T10481073  RH  084%=      5-min Rain = 0
KFLS 200755Z 16007KT M04/M07 A3027 RMK A01 T10441069  RH  084%=      5-min Rain = 0
KFLS 200800Z 15006KT M04/M07 A3027 RMK A01 T10401068  RH  082%=      5-min Rain = 0
KFLS 200805Z 16007KT M04/M07 A3027 RMK A01 T10431073  RH  081%=      5-min Rain = 0
KFLS 200810Z 16006KT M05/M07 A3027 RMK A01 T10451073  RH  082%=      5-min Rain = 0
KFLS 200815Z 16007KT M05/M07 A3027 RMK A01 T10451071  RH  083%=      5-min Rain = 0
KFLS 200820Z 16006KT M04/M07 A3027 RMK A01 T10441070  RH  083%=      5-min Rain = 0
KFLS 200825Z 16006KT M05/M07 A3027 RMK A01 T10461072  RH  083%=      5-min Rain = 0
KFLS 200830Z 16005KT M05/M07 A3028 RMK A01 T10481072  RH  084%=      5-min Rain = 0
KFLS 200835Z 17006KT M05/M07 A3028 RMK A01 T10471071  RH  084%=      5-min Rain = 0
KFLS 200840Z 17006KT M05/M07 A3028 RMK A01 T10471071  RH  084%=      5-min Rain = 0
KFLS 200845Z 17005KT M05/M07 A3028 RMK A01 T10461071  RH  084%=      5-min Rain = 0
KFLS 200850Z 16005KT M05/M07 A3027 RMK A01 T10461073  RH  083%=      5-min Rain = 0
KFLS 200855Z 17006KT M05/M07 A3027 RMK A01 T10461073  RH  083%=      5-min Rain = 0
KFLS 200900Z 17006KT M04/M07 A3027 RMK A01 T10421071  RH  081%=      5-min Rain = 0
KFLS 200905Z 17007KT M04/M07 A3028 RMK A01 T10391072  RH  079%=      5-min Rain = 0
KFLS 200910Z 18007KT M04/M07 A3028 RMK A01 T10381073  RH  077%=      5-min Rain = 0
KFLS 200915Z 18008KT M04/M07 A3028 RMK A01 T10391074  RH  078%=      5-min Rain = 0
KFLS 200920Z 18007KT M04/M07 A3028 RMK A01 T10391074  RH  078%=      5-min Rain = 0
KFLS 200925Z 18007KT M04/M08 A3028 RMK A01 T10401076  RH  077%=      5-min Rain = 0
KFLS 200930Z 18007KT M04/M08 A3028 RMK A01 T10401077  RH  076%=      5-min Rain = 0
KFLS 200935Z 18006KT M04/M08 A3028 RMK A01 T10411078  RH  076%=      5-min Rain = 0
KFLS 200940Z 19006KT M04/M08 A3028 RMK A01 T10421079  RH  076%=      5-min Rain = 0
KFLS 200945Z 18007KT M04/M08 A3027 RMK A01 T10431080  RH  076%=      5-min Rain = 0
KFLS 200950Z 18007KT M05/M08 A3027 RMK A01 T10451081  RH  077%=      5-min Rain = 0
KFLS 200955Z 19007KT M04/M08 A3027 RMK A01 T10441080  RH  077%=      5-min Rain = 0
KFLS 201000Z 18006KT M05/M08 A3027 RMK A01 T10451080  RH  078%=      5-min Rain = 0
KFLS 201005Z 18007KT M05/M08 A3027 RMK A01 T10451079  RH  078%=      5-min Rain = 0
KFLS 201010Z 19007KT M04/M08 A3027 RMK A01 T10421078  RH  077%=      5-min Rain = 0
KFLS 201015Z 18007KT M04/M08 A3027 RMK A01 T10421079  RH  076%=      5-min Rain = 0
KFLS 201020Z 18006KT M04/M08 A3027 RMK A01 T10431079  RH  076%=      5-min Rain = 0
KFLS 201025Z 18006KT M04/M08 A3027 RMK A01 T10421079  RH  077%=      5-min Rain = 0
KFLS 201030Z 18006KT M04/M08 A3026 RMK A01 T10421078  RH  077%=      5-min Rain = 0
KFLS 201035Z 18006KT M04/M08 A3027 RMK A01 T10421079  RH  077%=      5-min Rain = 0
KFLS 201040Z 18007KT M04/M08 A3026 RMK A01 T10431079  RH  077%=      5-min Rain = 0
KFLS 201045Z 18006KT M04/M08 A3027 RMK A01 T10431079  RH  077%=      5-min Rain = 0
KFLS 201050Z 18006KT M04/M08 A3026 RMK A01 T10431079  RH  077%=      5-min Rain = 0
KFLS 201055Z 18007KT M04/M08 A3026 RMK A01 T10431079  RH  077%=      5-min Rain = 0
KFLS 201100Z 18007KT M04/M08 A3026 RMK A01 T10431078  RH  077%=      5-min Rain = 0
KFLS 201105Z 18008KT M04/M08 A3025 RMK A01 T10421078  RH  077%=      5-min Rain = 0
KFLS 201110Z 19008KT M04/M08 A3025 RMK A01 T10411077  RH  077%=      5-min Rain = 0
KFLS 201115Z 19008KT M04/M08 A3025 RMK A01 T10411077  RH  077%=      5-min Rain = 0
KFLS 201120Z 18008KT M04/M08 A3024 RMK A01 T10391077  RH  076%=      5-min Rain = 0
KFLS 201125Z 18009KT M04/M08 A3025 RMK A01 T10381078  RH  075%=      5-min Rain = 0
KFLS 201130Z 18009KT M04/M08 A3025 RMK A01 T10391079  RH  075%=      5-min Rain = 0
KFLS 201135Z 19009KT M04/M08 A3024 RMK A01 T10401079  RH  075%=      5-min Rain = 0
KFLS 201140Z 19008KT M04/M08 A3024 RMK A01 T10411081  RH  075%=      5-min Rain = 0
KFLS 201145Z 18009KT M04/M08 A3024 RMK A01 T10411081  RH  075%=      5-min Rain = 0
KFLS 201150Z 18009KT M04/M08 A3024 RMK A01 T10401082  RH  074%=      5-min Rain = 0
KFLS 201155Z 18009KT M04/M08 A3024 RMK A01 T10401083  RH  073%=      5-min Rain = 0
KFLS 201200Z 18010KT M04/M08 A3023 RMK A01 T10391084  RH  072%=      5-min Rain = 0
KFLS 201205Z 18009KT M04/M08 A3023 RMK A01 T10401084  RH  072%=      5-min Rain = 0
KFLS 201210Z 18009KT M04/M08 A3023 RMK A01 T10411084  RH  073%=      5-min Rain = 0
KFLS 201215Z 19010KT M04/M08 A3022 RMK A01 T10401084  RH  072%=      5-min Rain = 0
KFLS 201220Z 19010KT M04/M08 A3022 RMK A01 T10381084  RH  072%=      5-min Rain = 0
KFLS 201225Z 19009KT M04/M08 A3022 RMK A01 T10391083  RH  072%=      5-min Rain = 0
KFLS 201230Z 18009KT M04/M08 A3022 RMK A01 T10381083  RH  072%=      5-min Rain = 0
KFLS 201235Z 18010KT M04/M08 A3022 RMK A01 T10391083  RH  072%=      5-min Rain = 0
KFLS 201240Z 19008KT M04/M08 A3022 RMK A01 T10381084  RH  072%=      5-min Rain = 0
KFLS 201245Z 18009KT M04/M08 A3022 RMK A01 T10381084  RH  071%=      5-min Rain = 0
KFLS 201250Z 18009KT M04/M09 A3022 RMK A01 T10371085  RH  070%=      5-min Rain = 0
KFLS 201255Z 18009KT M04/M09 A3022 RMK A01 T10371086  RH  070%=      5-min Rain = 0
KFLS 201300Z 18009KT M04/M09 A3023 RMK A01 T10361086  RH  069%=      5-min Rain = 0
KFLS 201305Z 18010KT M04/M09 A3023 RMK A01 T10371086  RH  070%=      5-min Rain = 0
KFLS 201310Z 18010KT M04/M09 A3023 RMK A01 T10351086  RH  069%=      5-min Rain = 0
KFLS 201315Z 18009KT M04/M09 A3023 RMK A01 T10361086  RH  069%=      5-min Rain = 0
KFLS 201320Z 18010KT M03/M09 A3023 RMK A01 T10341086  RH  068%=      5-min Rain = 0
KFLS 201325Z 18009G14KT M03/M09 A3023 RMK A01 T10341086  RH  068%=      5-min Rain = 0
KFLS 201330Z 18009KT M03/M09 A3023 RMK A01 T10341086  RH  068%=      5-min Rain = 0
KFLS 201335Z 18010KT M03/M09 A3023 RMK A01 T10321085  RH  067%=      5-min Rain = 0
KFLS 201340Z 18009KT M03/M09 A3023 RMK A01 T10321085  RH  068%=      5-min Rain = 0
KFLS 201345Z 19009KT M03/M09 A3023 RMK A01 T10311085  RH  067%=      5-min Rain = 0
KFLS 201350Z 19009KT M03/M09 A3023 RMK A01 T10311085  RH  067%=      5-min Rain = 0
KFLS 201355Z 18009KT M03/M08 A3023 RMK A01 T10301084  RH  067%=      5-min Rain = 0
KFLS 201400Z 19008KT M03/M09 A3023 RMK A01 T10311085  RH  067%=      5-min Rain = 0
KFLS 201405Z 19010KT M03/M08 A3023 RMK A01 T10301084  RH  067%=      5-min Rain = 0
KFLS 201410Z 19009KT M03/M08 A3023 RMK A01 T10291084  RH  067%=      5-min Rain = 0
KFLS 201415Z 19008KT M03/M08 A3023 RMK A01 T10291083  RH  067%=      5-min Rain = 0
KFLS 201420Z 20009KT M03/M08 A3023 RMK A01 T10271082  RH  067%=      5-min Rain = 0
KFLS 201425Z 19010KT M03/M08 A3023 RMK A01 T10261081  RH  067%=      5-min Rain = 0
KFLS 201430Z 20009G14KT M02/M08 A3024 RMK A01 T10241080  RH  066%=      5-min Rain = 0
KFLS 201435Z 20009KT M02/M08 A3024 RMK A01 T10221079  RH  066%=      5-min Rain = 0
KFLS 201440Z 20010KT M02/M08 A3024 RMK A01 T10201076  RH  066%=      5-min Rain = 0
KFLS 201445Z 20010KT M02/M08 A3024 RMK A01 T10191075  RH  066%=      5-min Rain = 0
KFLS 201450Z 20011KT M02/M07 A3023 RMK A01 T10161074  RH  066%=      5-min Rain = 0
KFLS 201455Z 20011KT M01/M07 A3023 RMK A01 T10141073  RH  065%=      5-min Rain = 0
KFLS 201500Z 19011KT M01/M07 A3023 RMK A01 T10101071  RH  064%=      5-min Rain = 0
KFLS 201505Z 19012KT M01/M07 A3023 RMK A01 T10071071  RH  062%=      5-min Rain = 0
KFLS 201510Z 19012KT M01/M07 A3023 RMK A01 T10051071  RH  062%=      5-min Rain = 0
KFLS 201515Z 20010KT M00/M07 A3023 RMK A01 T10041069  RH  062%=      5-min Rain = 0
KFLS 201520Z 19010KT M00/M07 A3023 RMK A01 T10011067  RH  062%=      5-min Rain = 0
KFLS 201525Z 19012G18KT 00/07 A3023 RMK A01 T00000-67  RH  061%=      5-min Rain = 0
KFLS 201530Z 19012KT 00/M07 A3023 RMK A01 T00011066  RH  061%=      5-min Rain = 0
KFLS 201535Z 20011KT 00/M06 A3023 RMK A01 T00041063  RH  061%=      5-min Rain = 0
KFLS 201540Z 19012KT 01/M06 A3023 RMK A01 T00051063  RH  061%=      5-min Rain = 0
KFLS 201545Z 19012KT 01/M06 A3023 RMK A01 T00081060  RH  061%=      5-min Rain = 0
KFLS 201550Z 19013G18KT 01/M06 A3023 RMK A01 T00111058  RH  061%=      5-min Rain = 0
KFLS 201555Z 19014G19KT 01/M06 A3023 RMK A01 T00141056  RH  061%=      5-min Rain = 0
KFLS 201600Z 20014KT 02/M05 A3023 RMK A01 T00191053  RH  060%=      5-min Rain = 0
KFLS 201605Z 20015KT 02/M05 A3022 RMK A01 T00241051  RH  059%=      5-min Rain = 0
KFLS 201610Z 20014G19KT 03/M05 A3022 RMK A01 T00291047  RH  058%=      5-min Rain = 0
KFLS 201615Z 20013G18KT 03/M05 A3022 RMK A01 T00331045  RH  057%=      5-min Rain = 0
KFLS 201620Z 20014KT 04/M04 A3022 RMK A01 T00361044  RH  057%=      5-min Rain = 0
KFLS 201625Z 19013KT 04/M04 A3022 RMK A01 T00391042  RH  056%=      5-min Rain = 0
KFLS 201630Z 20014KT 04/M04 A3022 RMK A01 T00431041  RH  055%=      5-min Rain = 0
KFLS 201635Z 19013KT 05/M04 A3022 RMK A01 T00501039  RH  053%=      5-min Rain = 0
KFLS 201640Z 19014KT 06/M04 A3021 RMK A01 T00561037  RH  051%=      5-min Rain = 0
KFLS 201645Z 19014KT 06/M04 A3021 RMK A01 T00571038  RH  051%=      5-min Rain = 0
KFLS 201650Z 19014G20KT 06/M04 A3021 RMK A01 T00601036  RH  051%=      5-min Rain = 0
KFLS 201655Z 20017G22KT 06/M04 A3021 RMK A01 T00591037  RH  051%=      5-min Rain = 0
KFLS 201700Z 20016KT 06/M04 A302 RMK A01 T00601036  RH  050%=      5-min Rain = 0
KFLS 201705Z 20015G21KT 06/M04 A302 RMK A01 T00641035  RH  049%=      5-min Rain = 0
KFLS 201710Z 20017KT 07/M04 A302 RMK A01 T00671035  RH  048%=      5-min Rain = 0
KFLS 201715Z 20016G21KT 07/M03 A302 RMK A01 T00701034  RH  048%=      5-min Rain = 0
KFLS 201720Z 20015G20KT 08/M03 A302 RMK A01 T00781032  RH  046%=      5-min Rain = 0
KFLS 201725Z 20016KT 08/M03 A3019 RMK A01 T00811033  RH  045%=      5-min Rain = 0
KFLS 201730Z 20015KT 09/M03 A3019 RMK A01 T00851032  RH  044%=      5-min Rain = 0
KFLS 201735Z 21018KT 08/M04 A3019 RMK A01 T00811037  RH  044%=      5-min Rain = 0
KFLS 201740Z 21016G21KT 08/M04 A3019 RMK A01 T00811036  RH  044%=      5-min Rain = 0
KFLS 201745Z 21017G22KT 09/M04 A3019 RMK A01 T00851035  RH  043%=      5-min Rain = 0
KFLS 201750Z 21014G19KT 09/M03 A3019 RMK A01 T00931032  RH  042%=      5-min Rain = 0
KFLS 201755Z 21016G23KT 09/M03 A3018 RMK A01 T00941033  RH  041%=      5-min Rain = 0
KFLS 201800Z 21017KT 10/M03 A3018 RMK A01 T00951034  RH  041%=      5-min Rain = 0
KFLS 201805Z 20014G21KT 10/M03 A3018 RMK A01 T01001032  RH  040%=      5-min Rain = 0
KFLS 201810Z 21014KT 10/M03 A3018 RMK A01 T01031032  RH  039%=      5-min Rain = 0
KFLS 201815Z 21015KT 11/M03 A3018 RMK A01 T01061033  RH  038%=      5-min Rain = 0
KFLS 201820Z 21014G19KT 11/M03 A3017 RMK A01 T01101033  RH  037%=      5-min Rain = 0
KFLS 201825Z 21014KT 12/M03 A3017 RMK A01 T01171032  RH  036%=      5-min Rain = 0
KFLS 201830Z 20015G20KT 12/M03 A3017 RMK A01 T01151033  RH  036%=      5-min Rain = 0
KFLS 201835Z 21014KT 12/M03 A3016 RMK A01 T01201032  RH  035%=      5-min Rain = 0
KFLS 201840Z 21014G19KT 12/M03 A3016 RMK A01 T01231034  RH  034%=      5-min Rain = 0
KFLS 201845Z 21014G20KT 12/M04 A3016 RMK A01 T01231035  RH  033%=      5-min Rain = 0
KFLS 201850Z 21014KT 13/M04 A3015 RMK A01 T01291036  RH  032%=      5-min Rain = 0
KFLS 201855Z 21015G20KT 13/M04 A3015 RMK A01 T01321035  RH  032%=      5-min Rain = 0
KFLS 201900Z 21016KT 13/M04 A3014 RMK A01 T01321036  RH  031%=      5-min Rain = 0
KFLS 201905Z 21013KT 13/M04 A3014 RMK A01 T01261038  RH  032%=      5-min Rain = 0
KFLS 201910Z 21014KT 13/M04 A3014 RMK A01 T01291035  RH  032%=      5-min Rain = 0
KFLS 201915Z 21014G21KT 14/M04 A3013 RMK A01 T01411038  RH  029%=      5-min Rain = 0
KFLS 201920Z 22014G19KT 15/M04 A3012 RMK A01 T01451039  RH  028%=      5-min Rain = 0
KFLS 201925Z 21012G17KT 15/M04 A3012 RMK A01 T01491040  RH  027%=      5-min Rain = 0
KFLS 201930Z 22013G19KT 15/M04 A3012 RMK A01 T01461044  RH  027%=      5-min Rain = 0
KFLS 201935Z 22012KT 14/M04 A3011 RMK A01 T01441044  RH  027%=      5-min Rain = 0
KFLS 201940Z 21013G21KT 14/M05 A3011 RMK A01 T01381047  RH  028%=      5-min Rain = 0
KFLS 201945Z 21013KT 14/M05 A301 RMK A01 T01411045  RH  028%=      5-min Rain = 0
KFLS 201950Z 21014KT 14/M05 A301 RMK A01 T01381049  RH  027%=      5-min Rain = 0
KFLS 201955Z 21013KT 14/M05 A301 RMK A01 T01371048  RH  028%=      5-min Rain = 0
KFLS 202000Z 21012G17KT 14/M05 A3009 RMK A01 T01421049  RH  026%=      5-min Rain = 0
KFLS 202005Z 21012KT 14/M05 A301 RMK A01 T01391049  RH  027%=      5-min Rain = 0
KFLS 202010Z 21012G18KT 14/M05 A301 RMK A01 T01381050  RH  027%=      5-min Rain = 0
KFLS 202015Z 21013KT 14/M05 A301 RMK A01 T01391053  RH  026%=      5-min Rain = 0
KFLS 202020Z 21013KT 14/M05 A301 RMK A01 T01391053  RH  026%=      5-min Rain = 0
KFLS 202025Z 22012KT 14/M05 A3009 RMK A01 T01431054  RH  025%=      5-min Rain = 0
KFLS 202030Z 20012KT 15/M06 A3009 RMK A01 T01491056  RH  024%=      5-min Rain = 0
KFLS 202035Z 21013KT 15/M06 A3009 RMK A01 T01471058  RH  024%=      5-min Rain = 0
KFLS 202040Z 21013KT 15/M06 A3008 RMK A01 T01511060  RH  023%=      5-min Rain = 0
KFLS 202045Z 21012KT 15/M06 A3008 RMK A01 T01491061  RH  023%=      5-min Rain = 0
KFLS 202050Z 21012G17KT 15/M06 A3008 RMK A01 T01511063  RH  023%=      5-min Rain = 0
KFLS 202055Z 21011KT 15/M06 A3008 RMK A01 T01541060  RH  023%=      5-min Rain = 0
KFLS 202100Z 21012KT 16/M06 A3008 RMK A01 T01551057  RH  023%=      5-min Rain = 0
KFLS 202105Z 21013G19KT 16/M06 A3007 RMK A01 T01581061  RH  022%=      5-min Rain = 0
KFLS 202110Z 22014G19KT 16/M06 A3007 RMK A01 T01571063  RH  022%=      5-min Rain = 0
KFLS 202115Z 21014G19KT 16/M06 A3007 RMK A01 T01551064  RH  022%=      5-min Rain = 0
KFLS 202120Z 21013G18KT 16/M06 A3007 RMK A01 T01611059  RH  022%=      5-min Rain = 0
KFLS 202125Z 22012G18KT 16/M06 A3007 RMK A01 T01611061  RH  021%=      5-min Rain = 0
KFLS 202130Z 21012G17KT 16/M06 A3006 RMK A01 T01621062  RH  021%=      5-min Rain = 0
KFLS 202135Z 22012G18KT 16/M06 A3006 RMK A01 T01591061  RH  022%=      5-min Rain = 0
KFLS 202140Z 20013KT 16/M06 A3006 RMK A01 T01591058  RH  022%=      5-min Rain = 0
KFLS 202145Z 20014G20KT 16/M06 A3006 RMK A01 T01611057  RH  022%=      5-min Rain = 0
KFLS 202150Z 20013G18KT 16/M06 A3006 RMK A01 T01601057  RH  022%=      5-min Rain = 0
KFLS 202155Z 21013KT 16/M06 A3006 RMK A01 T01611057  RH  022%=      5-min Rain = 0
KFLS 202200Z 19012G18KT 16/M06 A3006 RMK A01 T01621057  RH  022%=      5-min Rain = 0
KFLS 202205Z 20014KT 16/M06 A3006 RMK A01 T01621056  RH  022%=      5-min Rain = 0
KFLS 202210Z 20013G18KT 16/M06 A3006 RMK A01 T01621055  RH  022%=      5-min Rain = 0
KFLS 202215Z 20011G16KT 17/M05 A3006 RMK A01 T01661054  RH  022%=      5-min Rain = 0
KFLS 202220Z 20012KT 16/M05 A3006 RMK A01 T01641054  RH  022%=      5-min Rain = 0
KFLS 202225Z 19012G17KT 16/M05 A3006 RMK A01 T01641054  RH  022%=      5-min Rain = 0
KFLS 202230Z 19012G18KT 16/M05 A3005 RMK A01 T01611054  RH  023%=      5-min Rain = 0
KFLS 202235Z 19011KT 16/M05 A3005 RMK A01 T01601054  RH  023%=      5-min Rain = 0
KFLS 202240Z 18013KT 16/M06 A3005 RMK A01 T01611055  RH  023%=      5-min Rain = 0
KFLS 202245Z 19011G16KT 16/M05 A3005 RMK A01 T01611054  RH  023%=      5-min Rain = 0
KFLS 202250Z 18012KT 16/M05 A3005 RMK A01 T01601052  RH  023%=      5-min Rain = 0
KFLS 202255Z 19011KT 16/M05 A3005 RMK A01 T01601052  RH  023%=      5-min Rain = 0
KFLS 202300Z 19012KT 16/M06 A3005 RMK A01 T01601055  RH  023%=      5-min Rain = 0
KFLS 202305Z 19013G19KT 16/M06 A3005 RMK A01 T01601059  RH  022%=      5-min Rain = 0
KFLS 202310Z 19013KT 16/M06 A3004 RMK A01 T01561060  RH  022%=      5-min Rain = 0
KFLS 202315Z 19013G19KT 15/M06 A3004 RMK A01 T01541060  RH  023%=      5-min Rain = 0
KFLS 202320Z 19013G18KT 15/M06 A3004 RMK A01 T01531060  RH  023%=      5-min Rain = 0
KFLS 202325Z 19011G16KT 15/M06 A3004 RMK A01 T01531059  RH  023%=      5-min Rain = 0
KFLS 202330Z 19012KT 15/M06 A3004 RMK A01 T01481059  RH  024%=      5-min Rain = 0
KFLS 202335Z 19010KT 15/M06 A3004 RMK A01 T01461059  RH  024%=      5-min Rain = 0
KFLS 202340Z 19010G16KT 14/M06 A3004 RMK A01 T01431059  RH  025%=      5-min Rain = 0
KFLS 202345Z 19009KT 14/M06 A3004 RMK A01 T01381059  RH  025%=      5-min Rain = 0
KFLS 202350Z 19010KT 13/M06 A3004 RMK A01 T01341061  RH  025%=      5-min Rain = 0
KFLS 202355Z 18010KT 13/M06 A3004 RMK A01 T01331063  RH  025%=      5-min Rain = 0
KFLS 210000Z 18009KT 13/M06 A3004 RMK A01 T01301064  RH  026%=      5-min Rain = 0
KFLS 210005Z 17008KT 12/M06 A3004 RMK A01 T01221063  RH  027%=      5-min Rain = 0
KFLS 210010Z 18008KT 12/M06 A3004 RMK A01 T01161062  RH  029%=      5-min Rain = 0
KFLS 210015Z 18008KT 11/M06 A3004 RMK A01 T01121063  RH  029%=      5-min Rain = 0
KFLS 210020Z 18009KT 11/M06 A3004 RMK A01 T01111063  RH  029%=      5-min Rain = 0
KFLS 210025Z 17008KT 11/M06 A3004 RMK A01 T01071064  RH  030%=      5-min Rain = 0
KFLS 210030Z 17008KT 10/M06 A3004 RMK A01 T01041064  RH  030%=      5-min Rain = 0
KFLS 210035Z 17009KT 11/M06 A3004 RMK A01 T01061063  RH  030%=      5-min Rain = 0
KFLS 210040Z 17009KT 11/M06 A3004 RMK A01 T01061062  RH  030%=      5-min Rain = 0
KFLS 210045Z 18010KT 10/M06 A3004 RMK A01 T01041060  RH  031%=      5-min Rain = 0
KFLS 210050Z 18010KT 10/M06 A3004 RMK A01 T01031059  RH  032%=      5-min Rain = 0
KFLS 210055Z 18009KT 10/M06 A3004 RMK A01 T00981060  RH  033%=      5-min Rain = 0
KFLS 210100Z 17009KT 10/M06 A3004 RMK A01 T00961060  RH  033%=      5-min Rain = 0
KFLS 210105Z 17009KT 10/M06 A3004 RMK A01 T00951060  RH  033%=      5-min Rain = 0
KFLS 210110Z 17008KT 09/M06 A3004 RMK A01 T00931060  RH  034%=      5-min Rain = 0
KFLS 210115Z 17009KT 09/M06 A3004 RMK A01 T00901058  RH  035%=      5-min Rain = 0
KFLS 210120Z 17009KT 09/M05 A3004 RMK A01 T00881054  RH  037%=      5-min Rain = 0
KFLS 210125Z 17010KT 09/M05 A3004 RMK A01 T00901048  RH  038%=      5-min Rain = 0
KFLS 210130Z 17009KT 09/M05 A3003 RMK A01 T00881046  RH  039%=      5-min Rain = 0
KFLS 210135Z 17009KT 09/M05 A3003 RMK A01 T00851046  RH  040%=      5-min Rain = 0
KFLS 210140Z 17009KT 08/M05 A3003 RMK A01 T00811046  RH  041%=      5-min Rain = 0
KFLS 210145Z 17009KT 08/M05 A3003 RMK A01 T00791047  RH  041%=      5-min Rain = 0
KFLS 210150Z 17009KT 08/M05 A3003 RMK A01 T00781048  RH  041%=      5-min Rain = 0
KFLS 210155Z 17009KT 08/M05 A3003 RMK A01 T00781049  RH  041%=      5-min Rain = 0
KFLS 210200Z 17009KT 08/M05 A3003 RMK A01 T00771050  RH  041%=      5-min Rain = 0
KFLS 210205Z 17009KT 08/M05 A3002 RMK A01 T00751051  RH  041%=      5-min Rain = 0
KFLS 210210Z 17008KT 07/M05 A3003 RMK A01 T00711052  RH  042%=      5-min Rain = 0
KFLS 210215Z 17008KT 07/M05 A3002 RMK A01 T00651052  RH  043%=      5-min Rain = 0
KFLS 210220Z 18009KT 07/M05 A3002 RMK A01 T00661051  RH  043%=      5-min Rain = 0
KFLS 210225Z 18010KT 07/M05 A3002 RMK A01 T00681051  RH  043%=      5-min Rain = 0
KFLS 210230Z 18011KT 07/M05 A3002 RMK A01 T00701050  RH  043%=      5-min Rain = 0
KFLS 210235Z 18011KT 07/M05 A3002 RMK A01 T00711048  RH  043%=      5-min Rain = 0
KFLS 210240Z 18010KT 07/M05 A3002 RMK A01 T00741046  RH  043%=      5-min Rain = 0
KFLS 210245Z 18010KT 07/M05 A3001 RMK A01 T00721045  RH  044%=      5-min Rain = 0
KFLS 210250Z 18011KT 07/M05 A3001 RMK A01 T00721045  RH  044%=      5-min Rain = 0
KFLS 210255Z 18012KT 07/M04 A3001 RMK A01 T00731044  RH  044%=      5-min Rain = 0
KFLS 210300Z 18012KT 07/M04 A3001 RMK A01 T00741043  RH  043%=      5-min Rain = 0
KFLS 210305Z 18012KT 08/M04 A3001 RMK A01 T00761042  RH  043%=      5-min Rain = 0
KFLS 210310Z 18012KT 08/M04 A3001 RMK A01 T00761042  RH  043%=      5-min Rain = 0
KFLS 210315Z 18011KT 07/M04 A3001 RMK A01 T00741042  RH  044%=      5-min Rain = 0
KFLS 210320Z 18012KT 07/M04 A3001 RMK A01 T00731042  RH  044%=      5-min Rain = 0
KFLS 210325Z 18012KT 07/M04 A30 RMK A01 T00731042  RH  044%=      5-min Rain = 0
KFLS 210330Z 18011KT 07/M04 A30 RMK A01 T00711043  RH  045%=      5-min Rain = 0
KFLS 210335Z 18011KT 07/M04 A30 RMK A01 T00691043  RH  045%=      5-min Rain = 0
KFLS 210340Z 18011KT 07/M04 A30 RMK A01 T00661044  RH  046%=      5-min Rain = 0
KFLS 210345Z 18011KT 07/M04 A30 RMK A01 T00651044  RH  046%=      5-min Rain = 0
KFLS 210350Z 18011KT 06/M04 A30 RMK A01 T00631044  RH  047%=      5-min Rain = 0
KFLS 210355Z 18011KT 06/M05 A30 RMK A01 T00591045  RH  048%=      5-min Rain = 0
KFLS 210400Z 18010KT 06/M05 A2999 RMK A01 T00561045  RH  049%=      5-min Rain = 0
KFLS 210405Z 18010KT 05/M05 A2999 RMK A01 T00531046  RH  049%=      5-min Rain = 0
KFLS 210410Z 18010KT 05/M05 A2999 RMK A01 T00511047  RH  050%=      5-min Rain = 0
KFLS 210415Z 18009KT 05/M05 A2999 RMK A01 T00501048  RH  050%=      5-min Rain = 0
KFLS 210420Z 18010KT 05/M05 A2999 RMK A01 T00531048  RH  049%=      5-min Rain = 0
KFLS 210425Z 18010KT 06/M05 A2999 RMK A01 T00561048  RH  048%=      5-min Rain = 0
KFLS 210430Z 18010KT 06/M05 A2999 RMK A01 T00551049  RH  048%=      5-min Rain = 0
KFLS 210435Z 19009KT 05/M05 A2999 RMK A01 T00531049  RH  048%=      5-min Rain = 0
KFLS 210440Z 19010KT 05/M05 A2999 RMK A01 T00511049  RH  049%=      5-min Rain = 0
KFLS 210445Z 19010KT 05/M05 A2999 RMK A01 T00521049  RH  049%=      5-min Rain = 0
KFLS 210450Z 19010KT 05/M05 A2999 RMK A01 T00501049  RH  050%=      5-min Rain = 0
KFLS 210455Z 19010KT 05/M05 A2999 RMK A01 T00471048  RH  051%=      5-min Rain = 0
KFLS 210500Z 20010KT 05/M05 A2999 RMK A01 T00461048  RH  051%=      5-min Rain = 0
KFLS 210505Z 20009KT 04/M05 A30 RMK A01 T00421048  RH  052%=      5-min Rain = 0
KFLS 210510Z 20008KT 04/M05 A30 RMK A01 T00361050  RH  054%=      5-min Rain = 0
KFLS 210515Z 20009KT 04/M05 A30 RMK A01 T00361049  RH  054%=      5-min Rain = 0
KFLS 210520Z 20010KT 04/M05 A2999 RMK A01 T00401048  RH  053%=      5-min Rain = 0
KFLS 210525Z 20010KT 04/M05 A2999 RMK A01 T00421047  RH  053%=      5-min Rain = 0
KFLS 210530Z 20011KT 05/M05 A2999 RMK A01 T00451045  RH  053%=      5-min Rain = 0
KFLS 210535Z 20012KT 05/M04 A2999 RMK A01 T00511041  RH  052%=      5-min Rain = 0
KFLS 210540Z 20011KT 05/M04 A2999 RMK A01 T00521040  RH  052%=      5-min Rain = 0
KFLS 210545Z 20012KT 05/M04 A2999 RMK A01 T00541038  RH  052%=      5-min Rain = 0
KFLS 210550Z 20011KT 06/M04 A2999 RMK A01 T00551037  RH  052%=      5-min Rain = 0
KFLS 210555Z 20011KT 05/M04 A2999 RMK A01 T00531037  RH  053%=      5-min Rain = 0

Page generated in 0.0169 seconds.